createdAt,value
2022-08-14T00:00:04.173Z,18.36
2022-08-14T00:05:03.865Z,18.57
2022-08-14T00:10:52.345Z,18.49
2022-08-14T00:15:03.347Z,18.38
2022-08-14T00:20:05.116Z,18.9
2022-08-14T00:25:02.957Z,19.2
2022-08-14T00:30:04.344Z,19.18
2022-08-14T00:35:02.371Z,19.05
2022-08-14T00:40:19.228Z,18.81
2022-08-14T00:45:03.409Z,18.61
2022-08-14T00:50:02.979Z,18.6
2022-08-14T00:55:13.929Z,18.78
2022-08-14T01:00:02.424Z,18.76
2022-08-14T01:05:04.277Z,18.69
2022-08-14T01:10:03.679Z,17.78
2022-08-14T01:15:03.519Z,16.95
2022-08-14T01:20:05.374Z,16.38
2022-08-14T01:25:03.289Z,16.1
2022-08-14T01:30:04.823Z,15.91
2022-08-14T01:36:07.245Z,15.89
2022-08-14T01:40:03.376Z,15.84
2022-08-14T01:45:02.595Z,15.88
2022-08-14T01:50:02.365Z,16.12
2022-08-14T01:55:06.935Z,16.46
2022-08-14T02:00:03.473Z,16.6
2022-08-14T02:05:03.923Z,16.29
2022-08-14T02:10:06.662Z,16.57
2022-08-14T02:15:02.553Z,16.98
2022-08-14T02:20:04.756Z,17
2022-08-14T02:25:02.694Z,17.08
2022-08-14T02:30:03.546Z,17.21
2022-08-14T02:35:04.396Z,17.37
2022-08-14T02:40:05.791Z,17.25
2022-08-14T02:45:04.721Z,17.24
2022-08-14T02:50:04.396Z,17.36
2022-08-14T02:55:07.854Z,17.54
2022-08-14T03:00:09.246Z,17.14
2022-08-14T03:05:02.638Z,16.47
2022-08-14T03:10:33.469Z,16.31
2022-08-14T03:15:02.903Z,16.39
2022-08-14T03:20:05.565Z,16.72
2022-08-14T03:25:02.382Z,17.2
2022-08-14T03:30:05.751Z,17.5
2022-08-14T03:35:09.380Z,17.72
2022-08-14T03:40:03.359Z,17.8
2022-08-14T03:45:35.282Z,17.81
2022-08-14T03:50:02.568Z,17.98
2022-08-14T03:55:05.248Z,18
2022-08-14T04:00:02.522Z,17.95
2022-08-14T04:05:16.943Z,17.89
2022-08-14T04:10:03.242Z,17.96
2022-08-14T04:15:02.740Z,17.98
2022-08-14T04:20:03.207Z,17.92
2022-08-14T04:25:05.384Z,17.91
2022-08-14T04:30:07.152Z,17.98
2022-08-14T04:35:10.722Z,18.09
2022-08-14T04:40:03.477Z,18.16
2022-08-14T04:45:02.451Z,18.22
2022-08-14T04:50:04.335Z,18.32
2022-08-14T04:55:03.497Z,18.39
2022-08-14T05:00:03.081Z,18.42
2022-08-14T05:05:03.630Z,18.46
2022-08-14T05:10:21.907Z,18.62
2022-08-14T05:15:03.578Z,18.68
2022-08-14T05:22:19.273Z,18.8
2022-08-14T05:25:03.035Z,18.96
2022-08-14T05:30:02.938Z,19.09
2022-08-14T05:35:02.718Z,19.25
2022-08-14T05:40:03.382Z,19.42
2022-08-14T05:45:04.657Z,19.56
2022-08-14T05:50:03.051Z,19.64
2022-08-14T05:55:04.256Z,19.83
2022-08-14T06:00:02.891Z,19.96
2022-08-14T06:05:03.147Z,20.1
2022-08-14T06:10:04.543Z,20.2
2022-08-14T06:15:08.251Z,20.41
2022-08-14T06:20:04.790Z,20.49
2022-08-14T06:25:09.482Z,20.66
2022-08-14T06:30:10.963Z,20.82
2022-08-14T06:35:14.554Z,21.16
2022-08-14T06:40:25.405Z,21.42
2022-08-14T06:45:03.233Z,21.95
2022-08-14T06:50:05.194Z,22.23
2022-08-14T06:55:04.523Z,22.81
2022-08-14T07:00:02.436Z,23.28
2022-08-14T07:05:06.340Z,24.38
2022-08-14T07:10:03.090Z,25.23
2022-08-14T07:15:04.089Z,25.8
2022-08-14T07:20:02.455Z,25.85
2022-08-14T07:25:04.154Z,25.86
2022-08-14T07:30:03.048Z,25.87
2022-08-14T07:35:03.212Z,25.72
2022-08-14T07:40:03.800Z,26.1
2022-08-14T07:45:02.711Z,26.91
2022-08-14T07:50:03.080Z,27.35
2022-08-14T07:55:05.152Z,27.5
2022-08-14T08:00:02.649Z,27.55
2022-08-14T08:05:04.680Z,27.98
2022-08-14T08:10:02.890Z,28.77
2022-08-14T08:15:08.263Z,29.3
2022-08-14T08:20:03.123Z,29.51
2022-08-14T08:25:02.747Z,30.35
2022-08-14T08:30:03.256Z,30.52
2022-08-14T08:35:05.376Z,30.65
2022-08-14T08:40:06.109Z,30.89
2022-08-14T08:45:03.320Z,30.79
2022-08-14T08:50:31.550Z,31.12
2022-08-14T08:55:06.075Z,31.27
2022-08-14T09:00:18.822Z,31.36
2022-08-14T09:05:02.955Z,30.63
2022-08-14T09:10:03.857Z,30.57
2022-08-14T09:15:03.281Z,30.8
2022-08-14T09:20:04.413Z,31.18
2022-08-14T09:25:02.688Z,30.64
2022-08-14T09:30:34.476Z,30.54
2022-08-14T09:35:02.964Z,30.71
2022-08-14T09:40:04.065Z,30.96
2022-08-14T09:45:09.076Z,31.58
2022-08-14T09:50:04.770Z,31.85
2022-08-14T09:55:04.571Z,32.37
2022-08-14T10:00:30.231Z,33.2
2022-08-14T10:05:03.837Z,32.58
2022-08-14T10:10:24.321Z,32.3
2022-08-14T10:15:03.057Z,30.66
2022-08-14T10:20:02.537Z,31.83
2022-08-14T10:25:03.181Z,32.8
2022-08-14T10:30:02.631Z,31.86
2022-08-14T10:35:05.631Z,31.91
2022-08-14T10:40:37.180Z,32.52
2022-08-14T10:45:02.625Z,33.5
2022-08-14T10:50:03.397Z,33.37
2022-08-14T10:55:04.833Z,32.45
2022-08-14T11:00:03.552Z,32.75
2022-08-14T11:05:05.213Z,33.2
2022-08-14T11:10:03.710Z,32.85
2022-08-14T11:15:03.429Z,32.3
2022-08-14T11:20:02.970Z,32.99
2022-08-14T11:25:06.790Z,33.54
2022-08-14T11:30:54.771Z,32.66
2022-08-14T11:35:03.246Z,33.89
2022-08-14T11:40:05.514Z,33.95
2022-08-14T11:45:04.439Z,34.11
2022-08-14T11:50:02.829Z,34.14
2022-08-14T11:55:04.772Z,34.35
2022-08-14T12:00:03.478Z,34.55
2022-08-14T12:05:09.749Z,33.77
2022-08-14T12:10:43.619Z,34.52
2022-08-14T12:15:02.528Z,34.51
2022-08-14T12:20:03.646Z,34.16
2022-08-14T12:25:11.783Z,34.64
2022-08-14T12:30:07.430Z,34.24
2022-08-14T12:35:02.755Z,34.23
2022-08-14T12:40:03.551Z,33.08
2022-08-14T12:45:04.470Z,35.57
2022-08-14T12:50:03.746Z,34.71
2022-08-14T12:55:07.125Z,35.3
2022-08-14T13:00:23.905Z,33.51
2022-08-14T13:05:07.858Z,32.58
2022-08-14T13:10:52.714Z,32.36
2022-08-14T13:15:09.691Z,32.77
2022-08-14T13:20:25.109Z,32.81
2022-08-14T13:25:05.565Z,33.57
2022-08-14T13:30:03.411Z,35.9
2022-08-14T13:35:02.745Z,36.59
2022-08-14T13:40:04.376Z,34.39
2022-08-14T13:45:03.958Z,32.94
2022-08-14T13:50:02.839Z,32.04
2022-08-14T13:55:05.031Z,31.86
2022-08-14T14:00:03.069Z,31.41
2022-08-14T14:05:03.292Z,31.18
2022-08-14T14:10:06.758Z,30.76
2022-08-14T14:15:05.591Z,30.78
2022-08-14T14:20:04.805Z,31
2022-08-14T14:25:03.308Z,30.96
2022-08-14T14:30:03.575Z,31.08
2022-08-14T14:35:03.182Z,31.91
2022-08-14T14:40:57.105Z,32.52
2022-08-14T14:45:03.251Z,33.59
2022-08-14T14:50:02.993Z,36.16
2022-08-14T14:55:03.808Z,35.8
2022-08-14T15:00:04.543Z,33.81
2022-08-14T15:05:03.187Z,33.71
2022-08-14T15:10:04.207Z,31.7
2022-08-14T15:15:09.500Z,30.74
2022-08-14T15:20:03.168Z,30.61
2022-08-14T15:25:02.780Z,30.67
2022-08-14T15:30:02.766Z,31.03
2022-08-14T15:35:07.939Z,31.31
2022-08-14T15:40:22.757Z,31.47
2022-08-14T15:45:03.254Z,31.42
2022-08-14T15:50:03.130Z,31.19
2022-08-14T15:55:04.585Z,30.65
2022-08-14T16:00:21.415Z,30.33
2022-08-14T16:05:03.012Z,30.39
2022-08-14T16:10:30.870Z,30.21
2022-08-14T16:15:03.247Z,30.3
2022-08-14T16:20:03.172Z,30
2022-08-14T16:25:04.191Z,30.03
2022-08-14T16:30:05.585Z,29.84
2022-08-14T16:35:02.753Z,29.55
2022-08-14T16:40:03.490Z,29.4
2022-08-14T16:45:02.631Z,29.3
2022-08-14T16:50:08.336Z,29.15
2022-08-14T16:55:04.186Z,29.09
2022-08-14T17:00:28.279Z,29.05
2022-08-14T17:05:02.499Z,29.05
2022-08-14T17:10:10.044Z,29.16
2022-08-14T17:15:03.419Z,29.64
2022-08-14T17:20:40.001Z,29.75
2022-08-14T17:25:04.349Z,29.34
2022-08-14T17:30:03.354Z,29.17
2022-08-14T17:35:03.618Z,29.09
2022-08-14T17:40:16.145Z,28.95
2022-08-14T17:45:03.522Z,28.88
2022-08-14T17:51:01.366Z,28.71
2022-08-14T17:55:03.804Z,28.59
2022-08-14T18:00:03.094Z,28.33
2022-08-14T18:05:09.764Z,28.25
2022-08-14T18:10:56.833Z,27.96
2022-08-14T18:15:16.929Z,27.47
2022-08-14T18:21:43.273Z,26.84
2022-08-14T18:25:02.916Z,26.64
2022-08-14T18:30:58.043Z,26.74
2022-08-14T18:35:13.274Z,26.68
2022-08-14T18:40:04.844Z,26.6
2022-08-14T18:45:15.833Z,26.34
2022-08-14T18:50:30.680Z,25.94
2022-08-14T18:55:04.130Z,25.7
2022-08-14T19:00:05.495Z,25.65
2022-08-14T19:05:03.377Z,25.58
2022-08-14T19:10:03.807Z,25.52
2022-08-14T19:15:04.626Z,25.38
2022-08-14T19:20:03.998Z,25.18
2022-08-14T19:25:05.821Z,24.93
2022-08-14T19:30:02.440Z,24.76
2022-08-14T19:35:18.125Z,24.68
2022-08-14T19:40:20.197Z,24.73
2022-08-14T19:45:05.601Z,24.55
2022-08-14T19:50:31.279Z,24.19
2022-08-14T19:55:03.839Z,24.32
2022-08-14T20:00:29.945Z,24.38
2022-08-14T20:05:04.246Z,24.44
2022-08-14T20:12:04.998Z,24.41
2022-08-14T20:15:02.827Z,24.41
2022-08-14T20:20:06.990Z,24.63
2022-08-14T20:25:02.527Z,24.41
2022-08-14T20:30:34.427Z,24.53
2022-08-14T20:35:09.614Z,24.71
2022-08-14T20:40:03.194Z,24.91
2022-08-14T20:45:05.255Z,24.95
2022-08-14T20:50:25.074Z,24.77
2022-08-14T20:55:04.311Z,24.54
2022-08-14T21:00:04.735Z,24.52
2022-08-14T21:05:02.444Z,24.59
2022-08-14T21:10:36.600Z,24.62
2022-08-14T21:15:03.320Z,24.62
2022-08-14T21:20:29.041Z,24.49
2022-08-14T21:25:10.894Z,24.31
2022-08-14T21:30:09.072Z,24.03
2022-08-14T21:35:08.914Z,23.65
2022-08-14T21:40:46.226Z,23.39
2022-08-14T21:45:02.600Z,23.49
2022-08-14T21:51:00.588Z,23.25
2022-08-14T21:55:13.512Z,22.89
2022-08-14T22:00:36.105Z,22.59
2022-08-14T22:05:03.801Z,22.28
2022-08-14T22:10:07.103Z,21.66
2022-08-14T22:15:02.638Z,21.19
2022-08-14T22:20:05.375Z,20.84
2022-08-14T22:25:03.136Z,20.63
2022-08-14T22:30:03.217Z,20.43
2022-08-14T22:35:09.320Z,20.28
2022-08-14T22:41:31.368Z,20.17
2022-08-14T22:45:04.687Z,20
2022-08-14T22:50:29.741Z,20.62
2022-08-14T22:55:06.366Z,20.72
2022-08-14T23:00:03.939Z,21.08
2022-08-14T23:05:03.891Z,21.19
2022-08-14T23:10:34.702Z,21.29
2022-08-14T23:15:04.178Z,21.41
2022-08-14T23:20:05.866Z,21.37
2022-08-14T23:25:03.110Z,21.15
2022-08-14T23:30:04.400Z,21.01
2022-08-14T23:35:03.210Z,21.12
2022-08-14T23:40:03.008Z,21.44
2022-08-14T23:45:07.686Z,21.75
2022-08-14T23:50:38.353Z,21.73
2022-08-14T23:55:04.316Z,21.58
